createdAt,value
2023-01-10T00:02:25.512Z,0.60
2023-01-10T00:04:52.160Z,0.60
2023-01-10T00:07:18.724Z,0.60
2023-01-10T00:09:45.336Z,0.63
2023-01-10T00:12:30.310Z,0.70
2023-01-10T00:14:56.900Z,0.80
2023-01-10T00:17:23.551Z,0.70
2023-01-10T00:19:50.129Z,0.60
2023-01-10T00:22:19.577Z,0.90
2023-01-10T00:24:46.157Z,0.80
2023-01-10T00:27:22.210Z,0.70
2023-01-10T00:29:52.340Z,0.70
2023-01-10T00:32:20.388Z,0.70
2023-01-10T00:34:47.482Z,0.77
2023-01-10T00:37:14.835Z,0.90
2023-01-10T00:39:41.491Z,1.20
2023-01-10T00:42:29.674Z,1.13
2023-01-10T00:44:56.292Z,0.73
2023-01-10T00:47:22.908Z,1.00
2023-01-10T00:49:49.523Z,0.90
2023-01-10T00:52:16.069Z,1.00
2023-01-10T00:54:42.632Z,1.20
2023-01-10T00:57:09.212Z,1.30
2023-01-10T00:59:35.775Z,1.40
2023-01-10T01:02:02.410Z,1.60
2023-01-10T01:04:34.048Z,1.60
2023-01-10T01:07:01.996Z,1.50
2023-01-10T01:09:30.244Z,1.80
2023-01-10T01:11:57.716Z,1.70
2023-01-10T01:14:25.350Z,1.80
2023-01-10T01:16:52.288Z,1.87
2023-01-10T01:19:19.279Z,1.80
2023-01-10T01:21:45.881Z,1.97
2023-01-10T01:24:12.452Z,2.00
2023-01-10T01:26:39.916Z,1.87
2023-01-10T01:29:06.529Z,1.70
2023-01-10T01:31:33.181Z,1.90
2023-01-10T01:33:59.813Z,1.53
2023-01-10T01:36:26.428Z,1.90
2023-01-10T01:38:52.968Z,1.60
2023-01-10T01:41:38.206Z,1.90
2023-01-10T01:44:15.885Z,1.57
2023-01-10T01:46:47.897Z,2.00
2023-01-10T01:49:20.032Z,1.77
2023-01-10T01:51:50.475Z,1.80
2023-01-10T01:54:19.234Z,2.17
2023-01-10T01:56:51.960Z,1.77
2023-01-10T01:59:27.277Z,1.70
2023-01-10T02:01:58.079Z,2.17
2023-01-10T02:04:36.329Z,1.83
2023-01-10T02:07:03.149Z,2.37
2023-01-10T02:09:35.981Z,1.93
2023-01-10T02:12:03.398Z,2.23
2023-01-10T02:14:31.833Z,1.73
2023-01-10T02:16:58.444Z,2.03
2023-01-10T02:19:49.774Z,1.97
2023-01-10T02:22:31.960Z,1.87
2023-01-10T02:25:22.569Z,1.90
2023-01-10T02:28:07.702Z,2.50
2023-01-10T02:30:56.000Z,1.90
2023-01-10T02:33:34.691Z,2.00
2023-01-10T02:36:13.686Z,2.40
2023-01-10T02:38:58.122Z,2.60
2023-01-10T02:41:37.127Z,2.40
2023-01-10T02:44:11.297Z,2.37
2023-01-10T02:46:39.552Z,2.30
2023-01-10T02:49:06.572Z,3.10
2023-01-10T02:51:35.778Z,2.27
2023-01-10T02:54:08.383Z,2.90
2023-01-10T02:56:48.601Z,2.87
2023-01-10T02:59:42.087Z,2.90
2023-01-10T03:02:11.408Z,3.27
2023-01-10T03:05:11.165Z,3.20
2023-01-10T03:07:42.609Z,3.37
2023-01-10T03:10:30.193Z,3.30
2023-01-10T03:13:26.454Z,3.47
2023-01-10T03:15:55.225Z,3.40
2023-01-10T03:18:28.222Z,3.83
2023-01-10T03:20:56.720Z,3.20
2023-01-10T03:23:25.559Z,3.87
2023-01-10T03:25:54.128Z,3.80
2023-01-10T03:28:37.899Z,3.73
2023-01-10T03:31:13.243Z,3.57
2023-01-10T03:33:40.930Z,3.70
2023-01-10T03:36:31.248Z,3.20
2023-01-10T03:39:15.442Z,3.63
2023-01-10T03:41:50.720Z,3.60
2023-01-10T03:44:44.319Z,3.70
2023-01-10T03:47:24.361Z,3.30
2023-01-10T03:49:56.752Z,3.10
2023-01-10T03:52:24.824Z,3.47
2023-01-10T03:54:51.738Z,3.20
2023-01-10T03:57:22.869Z,2.93
2023-01-10T03:59:53.416Z,3.00
2023-01-10T04:02:20.548Z,3.83
2023-01-10T04:04:47.180Z,3.27
2023-01-10T04:07:13.856Z,3.53
2023-01-10T04:09:40.405Z,3.23
2023-01-10T04:12:07.018Z,3.10
2023-01-10T04:14:33.829Z,3.10
2023-01-10T04:17:00.432Z,3.10
2023-01-10T04:19:26.982Z,3.10
2023-01-10T04:21:53.725Z,2.80
2023-01-10T04:24:20.333Z,3.07
2023-01-10T04:26:46.965Z,2.90
2023-01-10T04:29:13.573Z,3.13
2023-01-10T04:31:40.476Z,2.80
2023-01-10T04:34:09.159Z,3.37
2023-01-10T04:36:36.481Z,2.77
2023-01-10T04:39:04.127Z,3.17
2023-01-10T04:41:30.808Z,2.60
2023-01-10T04:43:57.446Z,2.97
2023-01-10T04:46:24.103Z,2.93
2023-01-10T04:48:50.744Z,2.90
2023-01-10T04:51:17.345Z,2.67
2023-01-10T04:53:43.910Z,2.50
2023-01-10T04:56:16.678Z,2.73
2023-01-10T04:58:43.408Z,3.17
2023-01-10T05:01:15.131Z,2.80
2023-01-10T05:03:42.095Z,2.77
2023-01-10T05:06:08.688Z,2.70
2023-01-10T05:08:35.856Z,3.20
2023-01-10T05:11:02.721Z,2.77
2023-01-10T05:13:29.357Z,2.53
2023-01-10T05:15:58.081Z,3.00
2023-01-10T05:18:29.181Z,2.93
2023-01-10T05:21:10.825Z,2.73
2023-01-10T05:23:38.350Z,3.20
2023-01-10T05:26:13.681Z,2.93
2023-01-10T05:28:41.120Z,3.17
2023-01-10T05:31:09.141Z,3.10
2023-01-10T05:33:36.143Z,2.87
2023-01-10T05:36:07.055Z,2.57
2023-01-10T05:38:33.926Z,2.67
2023-01-10T05:41:01.135Z,3.00
2023-01-10T05:43:28.595Z,2.60
2023-01-10T05:45:55.246Z,2.53
2023-01-10T05:48:22.290Z,2.90
2023-01-10T05:50:52.194Z,2.80
2023-01-10T05:53:19.878Z,2.63
2023-01-10T05:55:58.179Z,2.27
2023-01-10T05:58:25.672Z,2.67
2023-01-10T06:00:52.416Z,2.73
2023-01-10T06:03:19.483Z,3.17
2023-01-10T06:05:48.663Z,4.10
2023-01-10T06:08:16.351Z,4.00
2023-01-10T06:10:43.761Z,4.10
2023-01-10T06:13:10.351Z,3.03
2023-01-10T06:15:37.079Z,3.20
2023-01-10T06:18:03.988Z,2.77
2023-01-10T06:20:30.616Z,3.00
2023-01-10T06:22:58.691Z,2.60
2023-01-10T06:25:25.378Z,2.70
2023-01-10T06:27:52.108Z,2.50
2023-01-10T06:30:18.776Z,2.97
2023-01-10T06:32:45.471Z,4.00
2023-01-10T06:35:12.115Z,3.63
2023-01-10T06:37:38.822Z,3.50
2023-01-10T06:40:06.193Z,3.97
2023-01-10T06:42:32.819Z,2.60
2023-01-10T06:44:59.402Z,3.10
2023-01-10T06:47:26.041Z,3.07
2023-01-10T06:49:52.614Z,3.57
2023-01-10T06:52:19.219Z,2.70
2023-01-10T06:54:45.805Z,2.60
2023-01-10T06:57:12.409Z,4.07
2023-01-10T06:59:39.003Z,4.00
2023-01-10T07:02:05.737Z,2.83
2023-01-10T07:04:32.469Z,2.93
2023-01-10T07:06:59.028Z,2.90
2023-01-10T07:09:25.638Z,3.53
2023-01-10T07:11:52.193Z,3.50
2023-01-10T07:14:18.931Z,2.80
2023-01-10T07:16:45.503Z,2.93
2023-01-10T07:19:13.592Z,3.07
2023-01-10T07:21:40.322Z,2.67
2023-01-10T07:24:07.785Z,2.87
2023-01-10T07:26:34.387Z,2.80
2023-01-10T07:29:00.971Z,2.83
2023-01-10T07:31:27.678Z,3.60
2023-01-10T07:33:54.570Z,3.30
2023-01-10T07:36:21.479Z,3.93
2023-01-10T07:38:48.050Z,3.10
2023-01-10T07:41:14.759Z,2.13
2023-01-10T07:43:41.341Z,3.30
2023-01-10T07:46:09.608Z,2.97
2023-01-10T07:48:36.901Z,3.40
2023-01-10T07:51:04.636Z,2.97
2023-01-10T07:53:31.773Z,2.43
2023-01-10T07:56:00.129Z,3.33
2023-01-10T07:58:27.322Z,3.30
2023-01-10T08:00:58.470Z,2.80
2023-01-10T08:03:25.924Z,3.10
2023-01-10T08:06:11.199Z,2.70
2023-01-10T08:08:37.976Z,2.73
2023-01-10T08:11:05.133Z,3.10
2023-01-10T08:13:32.383Z,2.67
2023-01-10T08:15:59.028Z,2.80
2023-01-10T08:18:26.461Z,2.73
2023-01-10T08:20:54.311Z,2.80
2023-01-10T08:23:21.653Z,3.43
2023-01-10T08:25:48.417Z,2.40
2023-01-10T08:28:15.111Z,2.90
2023-01-10T08:30:41.848Z,2.97
2023-01-10T08:33:10.395Z,2.43
2023-01-10T08:35:42.178Z,2.70
2023-01-10T08:38:10.256Z,2.40
2023-01-10T08:40:37.195Z,2.50
2023-01-10T08:43:06.747Z,2.60
2023-01-10T08:45:34.171Z,2.40
2023-01-10T08:48:01.754Z,2.40
2023-01-10T08:50:28.391Z,2.83
2023-01-10T08:52:58.297Z,2.90
2023-01-10T08:55:25.453Z,2.70
2023-01-10T08:57:52.005Z,2.70
2023-01-10T09:00:19.305Z,2.50
2023-01-10T09:02:45.982Z,2.10
2023-01-10T09:05:26.448Z,2.53
2023-01-10T09:07:57.617Z,1.93
2023-01-10T09:10:24.169Z,2.40
2023-01-10T09:12:56.539Z,2.73
2023-01-10T09:15:25.993Z,2.70
2023-01-10T09:18:01.148Z,2.50
2023-01-10T09:20:29.182Z,2.70
2023-01-10T09:22:59.844Z,2.70
2023-01-10T09:25:26.554Z,2.27
2023-01-10T09:28:00.258Z,3.00
2023-01-10T09:30:29.119Z,2.57
2023-01-10T09:32:57.643Z,2.57
2023-01-10T09:35:26.627Z,3.13
2023-01-10T09:37:57.968Z,3.00
2023-01-10T09:40:39.951Z,2.63
2023-01-10T09:43:15.343Z,2.37
2023-01-10T09:45:59.837Z,2.30
2023-01-10T09:49:01.134Z,2.53
2023-01-10T09:51:36.822Z,2.13
2023-01-10T09:54:12.732Z,2.77
2023-01-10T09:56:40.676Z,2.43
2023-01-10T09:59:17.168Z,2.20
2023-01-10T10:01:46.660Z,2.30
2023-01-10T10:04:25.896Z,2.10
2023-01-10T10:06:53.782Z,2.40
2023-01-10T10:09:30.054Z,2.23
2023-01-10T10:12:23.397Z,2.93
2023-01-10T10:15:32.441Z,2.10
2023-01-10T10:18:27.056Z,2.90
2023-01-10T10:21:38.182Z,2.40
2023-01-10T10:24:28.826Z,2.43
2023-01-10T10:27:19.174Z,2.70
2023-01-10T10:30:12.077Z,2.33
2023-01-10T10:32:54.690Z,2.80
2023-01-10T10:35:24.267Z,2.87
2023-01-10T10:37:52.783Z,2.73
2023-01-10T10:40:28.810Z,2.73
2023-01-10T10:42:59.214Z,2.40
2023-01-10T10:45:47.817Z,2.63
2023-01-10T10:48:23.568Z,2.50
2023-01-10T10:51:02.466Z,2.43
2023-01-10T10:53:31.033Z,2.20
2023-01-10T10:55:58.513Z,2.40
2023-01-10T10:58:26.126Z,2.50
2023-01-10T11:00:53.062Z,3.10
2023-01-10T11:03:40.133Z,6.10
2023-01-10T11:06:08.882Z,3.80
2023-01-10T11:08:42.919Z,2.20
2023-01-10T11:11:20.882Z,2.97
2023-01-10T11:14:08.246Z,3.10
2023-01-10T11:16:41.004Z,3.07
2023-01-10T11:19:29.411Z,3.23
2023-01-10T11:22:00.422Z,3.27
2023-01-10T11:24:39.288Z,3.07
2023-01-10T11:27:18.080Z,2.90
2023-01-10T11:30:24.891Z,2.87
2023-01-10T11:33:07.219Z,3.20
2023-01-10T11:35:37.064Z,3.10
2023-01-10T11:38:05.495Z,3.30
2023-01-10T11:40:34.136Z,3.03
2023-01-10T11:43:34.584Z,2.80
2023-01-10T11:46:31.938Z,2.97
2023-01-10T11:49:08.157Z,3.10
2023-01-10T11:51:38.357Z,3.10
2023-01-10T11:54:32.583Z,2.93
2023-01-10T11:56:59.190Z,2.80
2023-01-10T11:59:27.402Z,2.73
2023-01-10T12:01:56.843Z,2.83
2023-01-10T12:04:24.213Z,2.80
2023-01-10T12:06:59.053Z,3.13
2023-01-10T12:09:39.561Z,2.97
2023-01-10T12:12:19.842Z,2.80
2023-01-10T12:14:47.321Z,3.33
2023-01-10T12:17:22.574Z,2.87
2023-01-10T12:19:53.246Z,3.10
2023-01-10T12:22:27.050Z,3.20
2023-01-10T12:24:55.213Z,3.00
2023-01-10T12:27:25.751Z,2.53
2023-01-10T12:30:01.723Z,2.63
2023-01-10T12:32:44.421Z,3.17
2023-01-10T12:35:17.278Z,3.30
2023-01-10T12:37:53.574Z,2.90
2023-01-10T12:40:44.121Z,3.40
2023-01-10T12:43:36.773Z,3.07
2023-01-10T12:46:33.545Z,3.27
2023-01-10T12:49:27.469Z,3.00
2023-01-10T12:51:58.670Z,2.87
2023-01-10T12:54:28.284Z,2.87
2023-01-10T12:56:58.121Z,3.40
2023-01-10T12:59:38.029Z,3.70
2023-01-10T13:02:12.405Z,2.60
2023-01-10T13:04:41.428Z,3.60
2023-01-10T13:07:12.493Z,3.13
2023-01-10T13:09:42.952Z,3.10
2023-01-10T13:12:24.311Z,3.13
2023-01-10T13:15:05.773Z,5.13
2023-01-10T13:17:32.428Z,5.03
2023-01-10T13:20:17.095Z,3.07
2023-01-10T13:22:47.164Z,3.60
2023-01-10T13:25:36.006Z,2.80
2023-01-10T13:28:05.790Z,3.70
2023-01-10T13:30:42.919Z,3.43
2023-01-10T13:33:27.675Z,3.60
2023-01-10T13:35:58.549Z,3.30
2023-01-10T13:38:55.404Z,2.47
2023-01-10T13:41:41.707Z,2.77
2023-01-10T13:44:15.252Z,2.67
2023-01-10T13:46:52.778Z,3.47
2023-01-10T13:49:40.668Z,3.57
2023-01-10T13:52:30.491Z,3.33
2023-01-10T13:54:59.623Z,3.13
2023-01-10T13:57:55.637Z,2.87
2023-01-10T14:00:44.413Z,3.20
2023-01-10T14:03:50.536Z,3.20
2023-01-10T14:06:32.116Z,2.70
2023-01-10T14:09:01.502Z,2.47
2023-01-10T14:11:46.297Z,2.70
2023-01-10T14:14:29.947Z,2.30
2023-01-10T14:17:08.986Z,3.20
2023-01-10T14:19:35.955Z,2.67
2023-01-10T14:22:04.193Z,2.60
2023-01-10T14:24:40.445Z,3.17
2023-01-10T14:27:13.504Z,2.73
2023-01-10T14:29:47.717Z,3.47
2023-01-10T14:32:43.948Z,3.00
2023-01-10T14:35:18.956Z,3.73
2023-01-10T14:38:01.754Z,4.00
2023-01-10T14:40:50.794Z,3.03
2023-01-10T14:43:23.739Z,3.57
2023-01-10T14:46:00.141Z,3.90
2023-01-10T14:48:29.954Z,3.10
2023-01-10T14:51:17.346Z,2.90
2023-01-10T14:53:44.404Z,2.37
2023-01-10T14:56:21.215Z,2.83
2023-01-10T14:58:47.773Z,2.90
2023-01-10T15:01:28.372Z,3.20
2023-01-10T15:03:57.083Z,2.63
2023-01-10T15:06:25.862Z,2.97
2023-01-10T15:09:00.658Z,3.07
2023-01-10T15:11:29.430Z,3.40
2023-01-10T15:14:03.510Z,3.60
2023-01-10T15:16:31.408Z,3.50
2023-01-10T15:18:58.424Z,4.10
2023-01-10T15:21:25.935Z,3.47
2023-01-10T15:23:53.391Z,3.60
2023-01-10T15:26:26.850Z,2.93
2023-01-10T15:29:13.272Z,3.17
2023-01-10T15:31:41.556Z,3.00
2023-01-10T15:34:11.103Z,3.43
2023-01-10T15:36:45.504Z,3.30
2023-01-10T15:39:23.975Z,3.17
2023-01-10T15:41:56.830Z,3.20
2023-01-10T15:44:34.542Z,4.07
2023-01-10T15:47:01.227Z,3.23
2023-01-10T15:49:28.194Z,3.67
2023-01-10T15:51:54.899Z,3.67
2023-01-10T15:54:24.282Z,4.10
2023-01-10T15:57:00.631Z,4.10
2023-01-10T15:59:54.643Z,3.40
2023-01-10T16:02:28.852Z,3.73
2023-01-10T16:04:58.633Z,3.90
2023-01-10T16:07:30.030Z,4.17
2023-01-10T16:10:01.523Z,3.43
2023-01-10T16:12:54.617Z,4.80
2023-01-10T16:15:24.160Z,3.87
2023-01-10T16:17:52.053Z,3.80
2023-01-10T16:20:22.265Z,4.07
2023-01-10T16:22:49.914Z,3.97
2023-01-10T16:25:26.671Z,3.67
2023-01-10T16:27:56.240Z,4.07
2023-01-10T16:30:25.738Z,4.17
2023-01-10T16:32:53.063Z,3.40
2023-01-10T16:35:20.284Z,4.13
2023-01-10T16:37:53.749Z,4.00
2023-01-10T16:40:36.831Z,3.97
2023-01-10T16:43:18.894Z,3.13
2023-01-10T16:45:47.353Z,3.20
2023-01-10T16:48:15.126Z,3.20
2023-01-10T16:50:42.307Z,4.03
2023-01-10T16:53:12.775Z,3.40
2023-01-10T16:55:43.772Z,3.57
2023-01-10T16:58:11.613Z,3.00
2023-01-10T17:00:40.046Z,2.90
2023-01-10T17:03:12.034Z,3.50
2023-01-10T17:05:39.142Z,2.83
2023-01-10T17:08:06.421Z,3.43
2023-01-10T17:10:35.875Z,3.40
2023-01-10T17:13:04.514Z,3.40
2023-01-10T17:15:31.138Z,3.97
2023-01-10T17:17:57.771Z,3.43
2023-01-10T17:20:24.447Z,3.50
2023-01-10T17:22:51.028Z,3.00
2023-01-10T17:25:18.077Z,3.23
2023-01-10T17:27:45.084Z,3.07
2023-01-10T17:30:12.442Z,2.70
2023-01-10T17:32:39.530Z,3.33
2023-01-10T17:35:07.264Z,3.63
2023-01-10T17:37:33.921Z,3.53
2023-01-10T17:40:00.508Z,2.83
2023-01-10T17:42:27.099Z,3.30
2023-01-10T17:44:53.741Z,3.10
2023-01-10T17:47:20.346Z,3.20
2023-01-10T17:49:47.012Z,3.20
2023-01-10T17:52:13.812Z,2.83
2023-01-10T17:54:40.529Z,3.83
2023-01-10T17:57:07.151Z,3.23
2023-01-10T17:59:33.749Z,3.10
2023-01-10T18:02:00.641Z,3.60
2023-01-10T18:04:27.447Z,3.70
2023-01-10T18:06:53.998Z,3.50
2023-01-10T18:09:20.652Z,3.33
2023-01-10T18:11:47.281Z,3.67
2023-01-10T18:14:32.566Z,3.30
2023-01-10T18:16:59.185Z,3.20
2023-01-10T18:19:25.881Z,3.70
2023-01-10T18:21:52.441Z,3.80
2023-01-10T18:24:19.231Z,3.37
2023-01-10T18:26:46.811Z,3.43
2023-01-10T18:29:13.720Z,2.83
2023-01-10T18:31:41.435Z,3.00
2023-01-10T18:34:08.912Z,2.57
2023-01-10T18:36:37.730Z,2.60
2023-01-10T18:39:04.379Z,3.50
2023-01-10T18:41:31.357Z,2.60
2023-01-10T18:43:57.971Z,3.10
2023-01-10T18:46:25.238Z,2.33
2023-01-10T18:48:53.216Z,2.57
2023-01-10T18:51:20.062Z,2.47
2023-01-10T18:53:47.572Z,2.57
2023-01-10T18:56:14.755Z,2.33
2023-01-10T18:58:42.118Z,2.77
2023-01-10T19:01:14.842Z,3.10
2023-01-10T19:03:42.266Z,3.03
2023-01-10T19:06:11.414Z,2.50
2023-01-10T19:08:40.845Z,3.00
2023-01-10T19:11:13.930Z,2.40
2023-01-10T19:13:42.750Z,2.80
2023-01-10T19:16:10.254Z,2.10
2023-01-10T19:18:36.871Z,2.23
2023-01-10T19:21:04.495Z,2.00
2023-01-10T19:23:31.276Z,2.37
2023-01-10T19:25:58.260Z,2.00
2023-01-10T19:28:29.590Z,2.40
2023-01-10T19:31:04.155Z,2.20
2023-01-10T19:33:34.254Z,1.87
2023-01-10T19:36:05.795Z,1.83
2023-01-10T19:38:32.477Z,1.80
2023-01-10T19:40:59.317Z,1.37
2023-01-10T19:43:26.001Z,1.30
2023-01-10T19:45:53.521Z,1.77
2023-01-10T19:48:20.151Z,1.30
2023-01-10T19:50:46.953Z,1.40
2023-01-10T19:53:13.869Z,1.50
2023-01-10T19:55:40.505Z,1.67
2023-01-10T19:58:07.113Z,1.13
2023-01-10T20:00:33.707Z,1.10
2023-01-10T20:03:00.547Z,1.30
2023-01-10T20:05:27.356Z,1.33
2023-01-10T20:07:54.012Z,1.17
2023-01-10T20:10:20.729Z,1.00
2023-01-10T20:12:47.352Z,1.13
2023-01-10T20:15:13.923Z,0.90
2023-01-10T20:17:40.978Z,1.10
2023-01-10T20:20:08.209Z,1.20
2023-01-10T20:22:34.787Z,1.40
2023-01-10T20:25:01.369Z,1.40
2023-01-10T20:27:28.790Z,1.30
2023-01-10T20:29:55.372Z,1.37
2023-01-10T20:32:22.643Z,1.30
2023-01-10T20:34:49.814Z,1.00
2023-01-10T20:37:16.703Z,0.73
2023-01-10T20:39:43.293Z,1.00
2023-01-10T20:42:09.973Z,1.10
2023-01-10T20:44:36.628Z,1.00
2023-01-10T20:47:03.317Z,1.10
2023-01-10T20:49:29.884Z,1.00
2023-01-10T20:51:56.507Z,1.80
2023-01-10T20:54:23.297Z,1.20
2023-01-10T20:56:49.962Z,1.00
2023-01-10T20:59:16.574Z,1.30
2023-01-10T21:01:43.191Z,2.03
2023-01-10T21:04:09.855Z,1.43
2023-01-10T21:06:36.863Z,1.17
2023-01-10T21:09:04.526Z,1.00
2023-01-10T21:11:31.220Z,0.80
2023-01-10T21:13:57.812Z,0.70
2023-01-10T21:16:25.458Z,1.03
2023-01-10T21:18:52.306Z,0.90
2023-01-10T21:21:22.477Z,0.80
2023-01-10T21:23:49.262Z,0.60
2023-01-10T21:26:16.050Z,0.87
2023-01-10T21:28:48.240Z,0.60
2023-01-10T21:31:18.409Z,0.77
2023-01-10T21:33:45.461Z,0.50
2023-01-10T21:36:13.632Z,0.50
2023-01-10T21:38:40.973Z,0.60
2023-01-10T21:41:35.997Z,0.60
2023-01-10T21:44:04.637Z,0.80
2023-01-10T21:46:31.271Z,0.60
2023-01-10T21:48:57.852Z,0.63
2023-01-10T21:51:24.460Z,0.57
2023-01-10T21:53:51.037Z,0.70
2023-01-10T21:56:17.861Z,0.63
2023-01-10T21:58:44.535Z,0.80
2023-01-10T22:01:11.155Z,0.70
2023-01-10T22:03:37.794Z,0.70
2023-01-10T22:06:04.614Z,0.90
2023-01-10T22:08:31.252Z,0.70
2023-01-10T22:10:57.858Z,0.70
2023-01-10T22:13:25.693Z,0.97
2023-01-10T22:16:02.101Z,0.70
2023-01-10T22:18:30.701Z,0.70
2023-01-10T22:20:58.010Z,0.70
2023-01-10T22:23:25.379Z,0.70
2023-01-10T22:26:03.313Z,0.73
2023-01-10T22:28:30.102Z,0.73
2023-01-10T22:30:57.176Z,0.70
2023-01-10T22:33:28.468Z,0.70
2023-01-10T22:35:55.074Z,0.80
2023-01-10T22:38:21.649Z,0.60
2023-01-10T22:40:48.309Z,0.60
2023-01-10T22:43:14.939Z,0.80
2023-01-10T22:45:42.333Z,0.70
2023-01-10T22:48:09.552Z,0.80
2023-01-10T22:50:36.694Z,0.80
2023-01-10T22:53:04.030Z,0.70
2023-01-10T22:55:30.766Z,0.80
2023-01-10T22:57:57.313Z,0.90
2023-01-10T23:00:23.918Z,0.83
2023-01-10T23:02:50.571Z,0.70
2023-01-10T23:05:17.355Z,0.80
2023-01-10T23:07:43.900Z,0.80
2023-01-10T23:10:28.481Z,0.73
2023-01-10T23:12:56.197Z,0.80
2023-01-10T23:15:22.761Z,0.93
2023-01-10T23:17:49.315Z,0.90
2023-01-10T23:20:17.502Z,0.90
2023-01-10T23:22:44.227Z,1.00
2023-01-10T23:25:10.897Z,1.00
2023-01-10T23:27:38.506Z,0.93
2023-01-10T23:30:10.223Z,1.07
2023-01-10T23:32:36.802Z,1.63
2023-01-10T23:35:03.957Z,1.10
2023-01-10T23:37:30.659Z,1.33
2023-01-10T23:39:57.376Z,1.20
2023-01-10T23:42:23.936Z,1.10
2023-01-10T23:44:50.581Z,1.20
2023-01-10T23:47:17.224Z,1.30
2023-01-10T23:49:43.868Z,1.40
2023-01-10T23:52:10.465Z,1.53
2023-01-10T23:54:37.037Z,1.30
2023-01-10T23:57:03.745Z,1.40
2023-01-10T23:59:30.351Z,1.30
